Wheatland, ND (58079)

7:52 PM CST on February 08, 2016 (GMT -0600)
Home of the Absaraka Crows | | Change Station
CLOSE
Current Station
Personal Weather Station
Location: Absaraka, ND
Elevation: 1066 ft
Nearby Weather Stations

Elev 1066 ft 46.98 °N, 97.39 °W | Updated 11 seconds ago

Mostly Cloudy
Mostly Cloudy
8.8 °F
Feels Like -2 °F
N
6.9
Wind Variable Wind from North
Gusts 10.7 mph

Today
High -- | Low -- °F
--% Chance of Precip.
Yesterday
High -- | Low -- °F
Precip. -- in
Pressure 30.22 in
Visibility 10.0 miles
Clouds Mostly Cloudy 3000 ft
Windchill -2 °F
Dew Point 6 °F
Humidity 90%
Rainfall 0.00 in
Snow Depth Not available.
7:45 AM 5:42 PM
New Moon, 0% visible
SPECI KFAR 090132Z 35020KT 10SM BKN030 M12/M17 A3022 RMK AO2 PK WND 36030/0055 T11171167
Pressure 30.22 in
Visibility 10.0 miles
Clouds Mostly Cloudy 3000 ft
Windchill -2 °F
Dew Point 6 °F
Humidity 90%
Rainfall 0.00 in
Snow Depth Not available.
7:45 AM 5:42 PM
New Moon, 0% visible
SPECI KFAR 090132Z 35020KT 10SM BKN030 M12/M17 A3022 RMK AO2 PK WND 36030/0055 T11171167

10-Day Weather Forecast

Almanac

Astronomy

Feb. 08, 2016 Rise Set
Actual Time
Civil Twilight
Nautical Twilight
Astronomical Twilight
Moon
Length of Visible Light
Length of Day
Tomorrow will be .
, % of the Moon is Illuminated

Today's Extremes

State Highs State Lows

Community

WunderPhotos

Upload Photos

1,891,527 photos uploaded!

WunderBlog® & News

Nearby

Air Quality

  Air Quality AQ Index Pollutant
Not available.

Snow Depth

Station Depth Elevation

Earthquake Activity

City Distance Mag. Time & Date
Minimum magnitude displayed is 2.5.

Coastal Water Temperatures

Place Temperature

Stations

Nearby Weather Stations

Station Location Temp. Windchill Dew Point Humidity Wind Precip. Elev Updated Type
                   

Watches & Warnings

There are currently no watches in effect.